< Cyclone 197402 1974 Season Cyclone 197404 >
Cyclone 197403 (BERYL)
General InformationTrack Information on Google Maps || ResourceGoogle EarthGE AnimationAtom FeedGeoJSON
Detalied Best Track (Time Zone = UTC)
Year Month Day Hour Lat. Long. Pressure (hPa) Wind (kt) Class Image Chart
1973 11 26 01 -10.0 116.4 1007 0 0 -- --
1973 11 26 04 -10.0 116.4 1005 0 0 -- --
1973 11 26 07 -10.1 116.5 1002 0 0 -- --
1973 11 26 10 -10.1 116.6 1003 0 0 -- --
1973 11 26 13 -10.1 116.7 1004 0 0 -- --
1973 11 26 16 -10.2 116.7 1005 0 0 -- --
1973 11 26 19 -10.2 116.8 1004 0 0 -- --
1973 11 26 22 -10.2 116.7 1004 0 0 -- --
1973 11 27 01 -10.3 116.9 1004 0 0 -- --
1973 11 27 04 -10.3 117.0 1002 0 0 -- --
1973 11 27 07 -10.4 117.0 999 0 0 -- --
1973 11 27 10 -10.4 117.1 998 0 0 -- --
1973 11 27 13 -10.5 117.1 997 0 0 -- --
1973 11 27 16 -10.5 117.2 996 0 0 -- --
1973 11 27 19 -10.6 117.2 994 0 0 -- --
1973 11 27 22 -10.6 117.3 994 0 0 -- --
1973 11 28 01 -10.7 117.2 994 0 0 -- --
1973 11 28 04 -10.7 117.4 992 0 0 -- --
1973 11 28 07 -10.8 117.5 989 0 0 -- --
1973 11 28 10 -10.8 117.6 989 0 0 -- --
1973 11 28 13 -10.7 117.7 990 0 0 -- --
1973 11 28 16 -10.7 117.8 989 0 0 -- --
1973 11 28 19 -10.7 117.9 988 0 0 -- --
1973 11 28 22 -10.6 118.0 988 0 0 -- --
1973 11 29 01 -10.6 118.1 988 0 0 -- --
1973 11 29 04 -10.6 118.1 986 0 0 -- --
1973 11 29 10 -10.7 118.3 983 0 0 -- --
1973 11 29 13 -10.7 118.1 983 0 0 -- --
1973 11 29 16 -10.7 118.4 982 0 0 -- --
1973 11 29 19 -10.8 118.4 981 0 0 -- --
1973 11 29 22 -10.8 118.5 981 0 0 -- --
1973 11 30 01 -10.9 118.5 981 0 0 -- --
1973 11 30 04 -11.0 118.4 979 0 0 -- --
1973 11 30 07 -11.2 118.2 976 0 0 -- --
1973 11 30 10 -11.5 118.0 976 0 0 -- --
1973 11 30 13 -11.8 117.9 976 0 0 -- --
1973 11 30 16 -12.1 117.5 975 0 0 -- --
1973 11 30 19 -12.4 117.2 973 0 0 -- --
1973 11 30 22 -12.7 116.9 973 0 0 -- --
1973 12 1 01 -13.1 116.6 973 0 0 -- --
1973 12 1 04 -13.4 116.3 973 0 0 -- --
1973 12 1 07 -13.7 116.0 973 0 0 -- --
1973 12 1 10 -14.1 115.7 973 0 0 -- --
1973 12 1 13 -14.5 115.4 973 0 0 -- --
1973 12 1 16 -14.9 115.1 973 0 0 -- --
1973 12 1 19 -15.3 114.8 973 0 0 -- --
1973 12 1 22 -15.7 114.5 973 0 0 -- --
1973 12 2 01 -16.1 114.1 973 0 0 -- --
1973 12 2 04 -16.5 114.0 974 0 0 -- --
1973 12 2 07 -16.9 114.0 975 0 0 -- --
1973 12 2 10 -17.3 114.0 978 0 0 -- --
1973 12 2 13 -17.7 114.0 983 0 0 -- --
1973 12 2 16 -18.2 114.0 986 0 0 -- --
1973 12 2 19 -18.7 114.0 986 0 0 -- --
1973 12 2 22 -19.2 114.0 987 0 0 -- --
1973 12 3 01 -19.7 114.0 988 0 0 -- --
1973 12 3 04 -20.2 114.0 989 0 0 -- --
1973 12 3 07 -20.7 113.9 990 0 0 -- --
1973 12 3 10 -21.3 113.9 994 0 0 -- --
1973 12 3 13 -21.8 113.8 998 0 0 -- --
1973 12 3 15 -22.1 113.7 1001 0 0 -- --
1973 12 3 16 -22.3 113.7 1002 0 0 -- --
1973 12 3 19 -22.8 113.7 1002 0 0 -- --
1973 12 3 22 -23.2 113.9 1004 0 0 -- --
1973 12 4 01 -23.4 114.1 1005 0 0 -- --
< Cyclone 197402 1974 Season Cyclone 197404 >

Help